LPPTLPPR

Guest
Details From LPPT - Lisboa
To LPPR - Porto
Flight Number -
Tags decoded
Created
Modified
Stats Distance 150 nm / 277 km
Max Altitude 0 ft / 0 m
Waypoints 2
Social Downloads 1
Likes 0
Share VATSIM

Download

Looking for another format? Having issues loading an existing format? Contact us
Advertisement - Login to hide

Notes

Requested: LPPT INBOM LAVPA LPPR Unmatched points: INBOM LAVPA

Route

LPPT LPPR

ID Type Via Altitude (ft/m) Position (lat/lon) Dist (leg/tot) Name
O LPPT APT - 0 / 0 38.77856 / -9.13515 - / 0 nm Lisboa
O LPPR APT - 0 / 0 41.24793 / -8.68122 149 / 149 nm Porto

Altitude Profile

Advertisement - Login to hide

LPPT

Details ICAO LPPT (LIS)
Name Lisbon Portela Intl
Region Portugal
Timezone Europe/Lisbon (UTC+1.0)
Stats Elevation 374 ft / 114 m (AMSL)
Location 38.778500° -9.135280°
Runways 2
Magnetic Variation 2.257° W

METAR

LPPT 240330Z 01003KT CAVOK 16/15 Q1025

Decode

TAF

TAF LPPT 232300Z 2400/2506 VRB03KT 9999 FEW012 PROB30 TEMPO 2403/2408 0200 FG BKN001 BECMG 2404/2407 07005KT BECMG 2415/2417 33008KT CAVOK BECMG 2500/2502 VRB03KT

Decode

Departure Runways

ID Width Length Bearing (true/mag) Surface Threshold Overrun Markings Lighting
03 148 ft / 45 m 12,167 ft / 3,708 m 22.70° / 24.96° ASPHALT 302 ft / 92 m 0 ft / 0 m PREC-APP CENTERLINE EDGE THRESHOLD ALSF-I TDZ REIL-OMNI
17 148 ft / 45 m 7,602 ft / 2,317 m 168.10° / 170.36° CONCRETE 0 ft / 0 m 0 ft / 0 m PREC-APP CENTERLINE EDGE THRESHOLD TDZ REIL-OMNI
21 148 ft / 45 m 12,167 ft / 3,708 m 202.71° / 204.97° ASPHALT 1,634 ft / 498 m 0 ft / 0 m PREC-APP CENTERLINE EDGE THRESHOLD ALSF-I TDZ REIL-OMNI
35 148 ft / 45 m 7,602 ft / 2,317 m 348.11° / 350.36° CONCRETE 197 ft / 60 m 0 ft / 0 m PREC-APP CENTERLINE EDGE THRESHOLD TDZ REIL-OMNI

LPPR

Details ICAO LPPR (OPO)
Name Porto - Francisco Sa Carneiro
Region Portugal
Timezone Europe/Lisbon (UTC+1.0)
Stats Elevation 227 ft / 69 m (AMSL)
Location 41.247900° -8.681220°
Runways 1
Magnetic Variation 2.228° W

METAR

LPPR 240330Z 09006KT CAVOK 17/08 Q1025

Decode

TAF

TAF LPPR 232300Z 2400/2424 08005KT CAVOK BECMG 2412/2414 30008KT BECMG 2421/2423 08005KT

Decode

Destination Runways

ID Width Length Bearing (true/mag) Surface Threshold Overrun Markings Lighting
17 148 ft / 45 m 11,429 ft / 3,483 m 168.85° / 171.08° ASPHALT 978 ft / 298 m 0 ft / 0 m PREC-APP CENTERLINE EDGE THRESHOLD CALVERT-ILS TDZ REIL-OMNI
35 148 ft / 45 m 11,429 ft / 3,483 m 348.85° / 351.08° ASPHALT 492 ft / 150 m 371 ft / 113 m PREC-APP CENTERLINE EDGE THRESHOLD CALVERT REIL-OMNI

Approach Navaids

Runway Type Ident Frequency Range Bearing (true/mag) Slope Elevation
17 DME PR 109.90 MHz 18 nm / 33 km - - 228 ft / 69 m (AMSL)
17 OM OM - - 168.88° / 171.11 ° - 228 ft / 69 m (AMSL)
17 GS PR 109.90 MHz 10 nm / 19 km 169.77° / 172.00 ° 2.72° 228 ft / 69 m (AMSL)
17 LOC-ILS PR 109.90 MHz 18 nm / 33 km 168.87° / 171.10 ° - 228 ft / 69 m (AMSL)

Popular Alternatives